Woodlawn, Kentucky
Current Conditions -  °F | °C
As of 10:53 PM on Saturday 20 Dec 2014 (Local Time) from KLUK Reporting Station
Haze Haze  
Wind Chill: 31°   Ceiling: 2500
Heat Index: 31°   Visibility: 6mi
Dew Point: 27°   Wind: 0mph
Humidity: 85%   Direction: NA
Pressure: 30.32"   Gusts: NA
Location:  39.0726°N, 84.4814°W
Report Text: KLUK 210353Z 00000KT 6SM BR OVC025 M01/M03 A3032 RMK AO2 SLP271 T10061028
Loading
Personal Weather Stations






























Interactive Weather Map New forecast layout! Learn more

10-Day Weather Forecast

Advertisements
Track Severe Weather on mobile